Terminal Aerodrome Forecast
Issued by NWS

Current Version | Previous Version | Text Only | Print | Product List | Glossary On
Versions: 1 2 3 4 5 6 7 8 9 10 11 12 13 14 15 16 17 18 19 20 21 22 23 24 25 26 27 28 29 30
000 FTUS41 KOKX 051400 AAA TAFHPN TAF AMD KHPN 051434Z 0515/0612 35010G17KT 1SM -SN BR OVC006 TEMPO 0515/0518 1/2SM SN FZFG VV003 FM051800 35011G16KT 2SM -SN BR BKN008 OVC015 FM051900 35011KT 4SM -SN BR SCT008 BKN015 OVC040 FM052200 32008KT P6SM SCT015 OVC040 FM060700 35008KT P6SM FEW040 AMD NOT SKED=

USA.gov is the U.S. government's official web portal to all federal, state and local government web resources and services.